Aérodrome :
LOGIN :

S'inscrire | Disclaimer

   EN    FR    IT 

 










Légende :    VFR   VFR Marginal   IFR   IFR Intensif   IFR Très Intensif
Visi : 
Plafond : 
>= 8 km
>= 3000ft
5 à 8 km
1000 à 3000 ft
1500m à 5 km
500 à 1000 ft
800 à 1500m
200 à 500 ft
< 800m
< 200 ft
Symboles :   Orages  Brouillard  Fortes neiges  Fortes précipitations  Vent > 20 kt
SIGMETs :   Divers  Orages  Givrage  Turbulence  Onde Orograph.  Cendres Volcan.







- Altitude de l'aérodrome : 56 ft
- Code IATA : BZR
- Voir les cartes d'approche


LFMU - Beziers / Vias

DERNIER METAR :
  • 252000Z AUTO 03007KT 9999 OVC010 15/14 Q1005 TEMPO VRB15G28KT 4000 TSRA BKN010 BKN020CB

METARs EXPIRÉS :
  • 251930Z AUTO 09010KT 9999 BKN011 OVC090 15/14 Q1005 TEMPO VRB15G28KT 4000 TSRA BKN010 BKN020CB
  • 251900Z AUTO 09010KT 9999 OVC012 15/14 Q1005 TEMPO VRB15G28KT 4000 TSRA BKN010 BKN020CB
  • 251830Z AUTO 10010KT 9999 BKN012/// BKN017/// BKN046/// ///CB 15/14 Q1005 TEMPO VRB15G28KT 4000 TSRA
  • 251800Z AUTO 10013KT 6000 -RA BKN012/// BKN027/// BKN058/// ///CB 15/14 Q1005 TEMPO VRB15G28KT 4000 TSRA
  • 251730Z AUTO 10007KT 3300 RA BR OVC012/// ///CB 15/14 Q1006 TEMPO VRB15G28KT TSRA

TAF TAF LFMU
Valide du 25 à 15h jusqu'au 26 à 15h UTC


251400Z 2515/2615 12012KT 9999 BKN013 BKN025
BECMG 2518/2522 32012KT
TEMPO 2517/2609 RA
PROB30
TEMPO 2518/2522 VRB15G28KT 4000 TSRA BKN010 BKN020CB
ATIS : +33 4 67 90 88 88
Pas de NOTAMs connus pour ce terrain.



MET'MAP, la Météo Aéronautique d'un coup d'oeil ! - Copyright ORBIFLY Décembre 2007 - Disclaimer

ORBIFLY MET'MAP TEAM :

Programmation & Développement : Alexandra Zaïnal
Conception & Développement : Baudouin d'Aumeries
Co-Programmation & Développement : Marc-Olivier Méhu
Soutien technique & logistique : Manuel Goepfert

Contact : metmap@orbifly.com




SOURCES & CREDITS :

   NOAA